Time;durP1;ratioP1;P1;durP2;ratioP2;P2;SDS_P1;SDS_P2;PMS_P1;PMS_P2;Temp;Humidity;BMP_temperature;BMP_pressure;BME280_temperature;BME280_humidity;BME280_pressure;Samples;Min_cycle;Max_cycle;Signal;HPM_P1;HPM_P2
2024/02/26 00:01:03;;;;;;;2.42;1.40;;;;;;;3.05;100.00;99422.72;5191137;28;20056;-74
2024/02/26 00:03:35;;;;;;;3.08;1.42;;;;;;;3.00;100.00;99422.00;5183710;28;20487;-74
2024/02/26 00:06:05;;;;;;;4.95;1.70;;;;;;;3.01;100.00;99431.44;5188666;28;20430;-74
2024/02/26 00:08:36;;;;;;;4.45;1.42;;;;;;;3.12;100.00;99425.13;5180680;28;20027;-74
2024/02/26 00:11:06;;;;;;;3.05;1.40;;;;;;;3.12;100.00;99419.09;5179753;28;20021;-74
2024/02/26 00:13:37;;;;;;;3.85;1.33;;;;;;;3.20;100.00;99410.28;5181537;28;20025;-74
2024/02/26 00:16:07;;;;;;;3.13;1.63;;;;;;;3.15;100.00;99413.84;5174924;28;20021;-74
2024/02/26 00:18:37;;;;;;;2.60;1.55;;;;;;;3.21;100.00;99417.13;5177610;28;20087;-74
2024/02/26 00:21:08;;;;;;;6.85;1.40;;;;;;;3.18;100.00;99411.22;5176698;28;20342;-74
2024/02/26 00:23:38;;;;;;;4.65;1.40;;;;;;;3.19;100.00;99405.19;5180836;28;20029;-74
2024/02/26 00:26:10;;;;;;;3.00;1.70;;;;;;;3.18;100.00;99412.06;5177329;28;20036;-74
2024/02/26 00:28:41;;;;;;;3.90;1.60;;;;;;;3.19;100.00;99411.16;5173983;28;20521;-74
2024/02/26 00:31:11;;;;;;;3.78;1.50;;;;;;;3.21;100.00;99401.66;5177873;28;20029;-74
2024/02/26 00:33:41;;;;;;;3.22;1.50;;;;;;;3.22;100.00;99411.09;5179707;28;20080;-74
2024/02/26 00:36:12;;;;;;;3.83;1.52;;;;;;;3.22;100.00;99405.94;5185534;28;20196;-74
2024/02/26 00:38:44;;;;;;;3.72;1.42;;;;;;;3.18;100.00;99413.81;5184374;28;20033;-74
2024/02/26 00:41:15;;;;;;;3.22;1.52;;;;;;;3.13;100.00;99402.72;5187552;28;20079;-74
2024/02/26 00:43:45;;;;;;;2.15;1.25;;;;;;;3.09;100.00;99403.69;5179076;28;20052;-74
2024/02/26 00:46:15;;;;;;;3.42;1.50;;;;;;;3.06;100.00;99403.78;5201416;28;20064;-74
2024/02/26 00:48:46;;;;;;;4.43;1.60;;;;;;;3.08;100.00;99396.84;5183881;28;20064;-74
2024/02/26 00:51:16;;;;;;;2.22;1.20;;;;;;;2.99;100.00;99397.09;5179425;28;20449;-74
2024/02/26 00:53:46;;;;;;;2.63;1.35;;;;;;;2.83;100.00;99411.22;5181089;28;20447;-74
2024/02/26 00:56:17;;;;;;;3.63;1.40;;;;;;;2.73;100.00;99405.44;5183884;28;20131;-74
2024/02/26 00:58:47;;;;;;;2.53;1.30;;;;;;;2.92;100.00;99400.66;5184259;28;20048;-74
2024/02/26 01:01:17;;;;;;;3.58;1.92;;;;;;;2.84;100.00;99400.03;5189364;28;20021;-74
2024/02/26 01:03:48;;;;;;;2.95;1.45;;;;;;;2.78;100.00;99403.59;5185525;28;20092;-74
2024/02/26 01:06:18;;;;;;;2.08;1.02;;;;;;;2.78;100.00;99402.72;5175682;28;20027;-74
2024/02/26 01:08:48;;;;;;;3.08;1.13;;;;;;;2.71;100.00;99398.59;5183673;28;20036;-74
2024/02/26 01:11:19;;;;;;;2.65;1.02;;;;;;;2.74;100.00;99393.38;5177995;28;20086;-74
2024/02/26 01:13:53;;;;;;;3.60;1.10;;;;;;;2.90;100.00;99389.53;5182887;28;20029;-74
2024/02/26 01:16:24;;;;;;;2.25;1.20;;;;;;;2.99;100.00;99404.81;5186031;28;20490;-74
2024/02/26 01:18:54;;;;;;;1.80;0.98;;;;;;;3.03;100.00;99403.84;5174279;28;20033;-74
2024/02/26 01:21:24;;;;;;;3.63;1.30;;;;;;;2.98;100.00;99396.22;5185039;28;20025;-73
2024/02/26 01:23:55;;;;;;;3.70;0.93;;;;;;;2.86;100.00;99396.50;5185884;28;20021;-74
2024/02/26 01:26:25;;;;;;;2.10;0.88;;;;;;;2.84;100.00;99389.69;5184315;28;20094;-72
2024/02/26 01:28:55;;;;;;;2.53;1.20;;;;;;;2.81;100.00;99387.16;5182220;28;20427;-74
2024/02/26 01:31:26;;;;;;;1.67;1.00;;;;;;;2.85;100.00;99397.38;5186500;28;20017;-73
2024/02/26 01:33:56;;;;;;;2.33;0.90;;;;;;;2.85;100.00;99383.66;5185009;28;20036;-74
2024/02/26 01:36:26;;;;;;;2.65;1.30;;;;;;;2.89;100.00;99387.84;5185468;28;20540;-73
2024/02/26 01:38:56;;;;;;;2.47;1.00;;;;;;;2.70;100.00;99394.34;5174753;28;20025;-74
2024/02/26 01:41:27;;;;;;;1.90;0.93;;;;;;;2.74;100.00;99389.06;5186646;28;20078;-73
2024/02/26 01:43:57;;;;;;;2.65;1.05;;;;;;;2.74;100.00;99386.50;5189976;28;20028;-74
2024/02/26 01:46:30;;;;;;;3.35;1.20;;;;;;;2.63;100.00;99378.16;5182539;28;20043;-73
2024/02/26 01:49:01;;;;;;;1.88;1.20;;;;;;;2.66;100.00;99378.06;5183941;28;20017;-74
2024/02/26 01:51:33;;;;;;;2.72;1.20;;;;;;;2.64;100.00;99382.41;5182938;28;20494;-74
2024/02/26 01:54:04;;;;;;;1.95;1.13;;;;;;;2.77;100.00;99376.09;5185164;28;20033;-74
2024/02/26 01:56:36;;;;;;;2.33;1.10;;;;;;;2.76;99.07;99376.13;5183625;28;20525;-74
2024/02/26 01:59:08;;;;;;;2.60;1.23;;;;;;;2.68;100.00;99384.03;5184239;28;20013;-74
2024/02/26 02:01:44;;;;;;;2.42;1.20;;;;;;;2.60;100.00;99382.53;5181238;28;20022;-74
2024/02/26 02:04:15;;;;;;;3.95;1.20;;;;;;;2.53;100.00;99375.81;5168274;28;20039;-74
2024/02/26 02:06:46;;;;;;;2.85;1.13;;;;;;;2.52;100.00;99392.19;5169096;28;20037;-74
2024/02/26 02:09:17;;;;;;;4.75;1.10;;;;;;;2.47;100.00;99391.44;5187806;28;20021;-74
2024/02/26 02:11:48;;;;;;;2.80;1.00;;;;;;;2.44;100.00;99402.66;5189065;28;20029;-74
2024/02/26 02:14:18;;;;;;;2.20;1.00;;;;;;;2.43;100.00;99392.34;5187626;28;20610;-74
2024/02/26 02:16:49;;;;;;;1.92;0.85;;;;;;;2.48;100.00;99393.13;5189629;28;20029;-74
2024/02/26 02:19:19;;;;;;;2.33;1.17;;;;;;;2.50;100.00;99393.94;5187252;28;20492;-74
2024/02/26 02:21:50;;;;;;;2.60;1.17;;;;;;;2.40;100.00;99395.88;5190033;28;20060;-73
2024/02/26 02:24:20;;;;;;;3.92;1.30;;;;;;;2.47;100.00;99400.00;5189700;28;20021;-74
2024/02/26 02:26:51;;;;;;;6.53;1.20;;;;;;;2.49;100.00;99405.13;5190281;28;20182;-74
2024/02/26 02:29:21;;;;;;;3.17;1.50;;;;;;;2.40;100.00;99393.28;5187733;28;20029;-74
2024/02/26 02:31:52;;;;;;;1.92;1.10;;;;;;;2.46;100.00;99390.56;5194226;28;20182;-74
2024/02/26 02:34:22;;;;;;;3.42;1.42;;;;;;;2.39;100.00;99390.75;5189276;28;20021;-74
2024/02/26 02:36:53;;;;;;;2.42;1.38;;;;;;;2.50;100.00;99401.69;5194086;28;20032;-74
2024/02/26 02:39:24;;;;;;;2.35;1.20;;;;;;;2.55;100.00;99389.53;5189987;28;20021;-74
2024/02/26 02:41:54;;;;;;;2.08;1.10;;;;;;;2.51;100.00;99393.06;5193748;28;20542;-74
2024/02/26 02:44:24;;;;;;;3.53;1.60;;;;;;;2.62;100.00;99396.22;5190286;28;20036;-74
2024/02/26 02:46:55;;;;;;;5.28;1.10;;;;;;;2.47;100.00;99397.41;5192289;28;20410;-74
2024/02/26 02:49:25;;;;;;;2.08;1.10;;;;;;;2.63;100.00;99392.75;5188468;28;20029;-74
2024/02/26 02:51:57;;;;;;;4.13;1.27;;;;;;;2.58;100.00;99394.59;5191706;28;20021;-74
2024/02/26 02:54:27;;;;;;;2.95;1.40;;;;;;;2.39;100.00;99391.59;5191439;28;20043;-74
2024/02/26 02:56:58;;;;;;;2.28;1.45;;;;;;;2.39;100.00;99393.31;5192845;28;20025;-73
2024/02/26 02:59:28;;;;;;;2.97;1.40;;;;;;;2.37;100.00;99395.09;5189310;28;20095;-74
2024/02/26 03:01:59;;;;;;;2.15;1.10;;;;;;;2.45;100.00;99403.47;5188462;28;20025;-74
2024/02/26 03:04:29;;;;;;;3.10;1.40;;;;;;;2.56;100.00;99406.69;5186496;28;20467;-74
2024/02/26 03:07:00;;;;;;;2.70;1.20;;;;;;;2.18;99.65;99397.19;5188628;28;20120;-73
2024/02/26 03:09:30;;;;;;;2.72;1.40;;;;;;;2.28;100.00;99413.31;5184416;28;20026;-74
2024/02/26 03:12:00;;;;;;;3.50;1.40;;;;;;;2.35;100.00;99409.75;5183820;28;20116;-74
2024/02/26 03:14:31;;;;;;;2.97;1.20;;;;;;;2.37;99.37;99411.38;5187667;28;20540;-74
2024/02/26 03:17:01;;;;;;;2.70;0.93;;;;;;;2.32;100.00;99417.53;5179609;28;20479;-73
2024/02/26 03:19:32;;;;;;;1.92;1.02;;;;;;;2.29;99.89;99415.00;5183106;28;20029;-74
2024/02/26 03:22:02;;;;;;;4.35;1.23;;;;;;;2.23;100.00;99416.00;5179159;28;20132;-74
2024/02/26 03:24:32;;;;;;;2.08;1.20;;;;;;;2.34;100.00;99416.59;5183548;28;20026;-74
2024/02/26 03:27:04;;;;;;;2.90;1.27;;;;;;;2.29;99.70;99409.84;5179853;28;20036;-73
2024/02/26 03:29:35;;;;;;;3.70;1.23;;;;;;;2.37;99.41;99415.72;5186498;28;20026;-73
2024/02/26 03:32:06;;;;;;;3.08;1.38;;;;;;;2.34;99.18;99416.59;5190885;28;20386;-73
2024/02/26 03:34:38;;;;;;;2.88;1.30;;;;;;;2.29;99.54;99427.88;5186182;28;20025;-72
2024/02/26 03:37:10;;;;;;;5.63;1.20;;;;;;;2.33;100.00;99426.97;5183324;28;20035;-73
2024/02/26 03:39:41;;;;;;;2.42;1.00;;;;;;;2.30;100.00;99424.47;5186629;28;20071;-74
2024/02/26 03:42:11;;;;;;;3.72;1.25;;;;;;;2.16;100.00;99419.56;5187814;28;20442;-74
2024/02/26 03:44:41;;;;;;;2.33;1.25;;;;;;;2.27;100.00;99435.66;5183912;28;20036;-73
2024/02/26 03:47:12;;;;;;;3.13;1.20;;;;;;;2.35;100.00;99435.50;5182034;28;20059;-74
2024/02/26 03:49:42;;;;;;;2.20;1.20;;;;;;;2.28;100.00;99433.94;5186183;28;20021;-74
2024/02/26 03:52:13;;;;;;;1.83;1.00;;;;;;;2.39;100.00;99434.56;5189932;28;20029;-74
2024/02/26 03:54:43;;;;;;;2.90;1.05;;;;;;;2.27;100.00;99434.81;5186100;28;20444;-74
2024/02/26 03:57:13;;;;;;;3.60;1.30;;;;;;;2.18;100.00;99435.84;5192337;28;20047;-74
2024/02/26 03:59:44;;;;;;;2.33;1.10;;;;;;;2.10;100.00;99431.72;5183808;28;20021;-74
2024/02/26 04:02:14;;;;;;;3.15;1.10;;;;;;;2.33;100.00;99439.84;5184595;28;20064;-74
2024/02/26 04:04:44;;;;;;;2.47;1.33;;;;;;;2.18;100.00;99427.28;5187795;28;20465;-74
2024/02/26 04:07:14;;;;;;;3.40;1.30;;;;;;;2.22;100.00;99431.47;5182826;28;20029;-74
2024/02/26 04:09:45;;;;;;;3.17;1.73;;;;;;;2.29;100.00;99439.06;5185192;28;20155;-74
2024/02/26 04:12:16;;;;;;;3.60;1.55;;;;;;;2.34;100.00;99428.66;5170604;28;20053;-74
2024/02/26 04:14:47;;;;;;;2.67;1.20;;;;;;;2.25;100.00;99431.41;5183955;28;20370;-74
2024/02/26 04:17:17;;;;;;;2.55;1.30;;;;;;;2.09;100.00;99423.16;5183974;28;20036;-74
2024/02/26 04:19:47;;;;;;;2.67;1.20;;;;;;;2.08;100.00;99423.19;5187739;28;20485;-74
2024/02/26 04:22:18;;;;;;;2.58;1.13;;;;;;;2.21;100.00;99420.34;5189410;28;20037;-73
2024/02/26 04:24:48;;;;;;;2.88;1.33;;;;;;;2.12;100.00;99420.53;5182220;28;20028;-73
2024/02/26 04:27:18;;;;;;;2.75;1.27;;;;;;;2.14;100.00;99423.06;5185807;28;20033;-73
2024/02/26 04:29:49;;;;;;;3.47;1.23;;;;;;;2.05;100.00;99418.97;5183143;28;20210;-73
2024/02/26 04:32:19;;;;;;;3.85;1.30;;;;;;;2.06;100.00;99422.38;5171814;28;20119;-73
2024/02/26 04:34:49;;;;;;;3.13;1.02;;;;;;;2.23;100.00;99426.31;5185340;28;20032;-73
2024/02/26 04:37:20;;;;;;;1.83;1.02;;;;;;;2.29;100.00;99436.47;5182076;28;20107;-73
2024/02/26 04:39:50;;;;;;;2.38;1.10;;;;;;;2.47;100.00;99435.25;5182254;28;20394;-74
2024/02/26 04:42:20;;;;;;;2.53;1.40;;;;;;;2.45;98.64;99439.56;5189396;28;20317;-73
2024/02/26 04:44:51;;;;;;;2.25;1.30;;;;;;;2.40;98.41;99449.16;5190585;28;20037;-74
2024/02/26 04:47:24;;;;;;;2.47;1.20;;;;;;;2.38;98.40;99444.03;5203554;28;20379;-73
2024/02/26 04:49:54;;;;;;;3.97;1.60;;;;;;;2.33;99.29;99445.00;5182639;28;20021;-73
2024/02/26 04:52:25;;;;;;;2.58;1.40;;;;;;;2.41;100.00;99456.00;5186353;28;20162;-73
2024/02/26 04:54:55;;;;;;;2.92;1.50;;;;;;;2.49;100.00;99460.09;5186122;28;20037;-74
2024/02/26 04:57:26;;;;;;;3.83;2.13;;;;;;;2.56;100.00;99458.25;5180493;28;20116;-73
2024/02/26 04:59:56;;;;;;;3.22;1.77;;;;;;;2.61;100.00;99461.56;5184293;28;20057;-73
2024/02/26 05:02:27;;;;;;;3.80;1.75;;;;;;;2.62;100.00;99468.41;5182370;28;20028;-74
2024/02/26 05:04:57;;;;;;;4.55;2.03;;;;;;;2.72;100.00;99475.91;5171023;28;20456;-73
2024/02/26 05:07:28;;;;;;;3.35;1.90;;;;;;;2.84;100.00;99479.97;5182195;28;20042;-74
2024/02/26 05:09:59;;;;;;;6.55;2.53;;;;;;;2.78;100.00;99478.38;5186927;28;20382;-73
2024/02/26 05:12:29;;;;;;;7.80;4.43;;;;;;;2.83;100.00;99484.28;5187434;28;20041;-74
2024/02/26 05:14:59;;;;;;;9.20;4.70;;;;;;;2.80;100.00;99489.50;5183677;28;20031;-73
2024/02/26 05:17:30;;;;;;;6.70;3.72;;;;;;;2.97;100.00;99483.97;5187548;28;20116;-74
2024/02/26 05:20:00;;;;;;;6.63;3.42;;;;;;;2.98;99.55;99485.66;5191264;28;20256;-73
2024/02/26 05:22:30;;;;;;;7.68;4.35;;;;;;;3.04;99.46;99488.94;5185151;28;20105;-73
2024/02/26 05:25:01;;;;;;;5.65;2.90;;;;;;;2.96;99.05;99487.44;5187080;28;20033;-73
2024/02/26 05:27:31;;;;;;;4.40;2.28;;;;;;;2.92;99.29;99489.25;5185894;28;20108;-73
2024/02/26 05:30:02;;;;;;;4.60;2.67;;;;;;;3.01;99.77;99488.19;5180434;28;20025;-73
2024/02/26 05:32:33;;;;;;;5.53;2.63;;;;;;;3.06;100.00;99497.50;5173221;28;20037;-73
2024/02/26 05:35:04;;;;;;;6.20;2.72;;;;;;;3.05;99.36;99497.56;5184918;28;20024;-73
2024/02/26 05:37:34;;;;;;;4.65;2.38;;;;;;;3.14;99.25;99500.78;5184887;28;20032;-73
2024/02/26 05:40:06;;;;;;;5.15;2.20;;;;;;;3.04;99.35;99494.09;5188852;28;20027;-73
2024/02/26 05:42:36;;;;;;;4.40;2.38;;;;;;;2.95;99.14;99503.78;5201402;28;20037;-72
2024/02/26 05:45:07;;;;;;;3.88;2.03;;;;;;;2.88;100.00;99502.25;5186369;28;20025;-73
2024/02/26 05:47:42;;;;;;;4.95;2.50;;;;;;;3.10;100.00;99498.28;5183216;28;20029;-73
2024/02/26 05:50:13;;;;;;;4.45;2.13;;;;;;;3.12;100.00;99507.69;5184564;28;20038;-73
2024/02/26 05:52:43;;;;;;;5.45;2.35;;;;;;;3.32;99.62;99504.63;5182907;28;20456;-73
2024/02/26 05:55:13;;;;;;;6.05;2.45;;;;;;;3.29;98.69;99495.25;5187196;28;20045;-73
2024/02/26 05:57:44;;;;;;;5.80;2.63;;;;;;;3.36;98.80;99501.13;5188945;28;20280;-73
2024/02/26 06:00:14;;;;;;;5.00;2.20;;;;;;;3.42;99.49;99495.81;5181426;28;20040;-73
2024/02/26 06:02:44;;;;;;;5.00;2.75;;;;;;;3.41;99.36;99494.09;5187259;28;20027;-73
2024/02/26 06:05:15;;;;;;;5.60;2.42;;;;;;;3.48;98.89;99505.97;5187301;28;20023;-73
2024/02/26 06:07:45;;;;;;;6.00;2.30;;;;;;;3.43;98.99;99507.81;5191867;28;20035;-73
2024/02/26 06:10:16;;;;;;;5.88;2.50;;;;;;;3.47;100.00;99504.28;5190743;28;20482;-73
2024/02/26 06:12:46;;;;;;;3.92;2.42;;;;;;;3.48;100.00;99511.13;5189090;28;20595;-73
2024/02/26 06:15:17;;;;;;;4.90;2.60;;;;;;;3.35;99.60;99508.00;5192133;28;20124;-73
2024/02/26 06:17:47;;;;;;;4.60;2.75;;;;;;;3.49;100.00;99512.81;5191054;28;20021;-73
2024/02/26 06:20:17;;;;;;;7.43;2.60;;;;;;;3.54;100.00;99511.00;5186529;28;20060;-74
2024/02/26 06:22:48;;;;;;;6.32;3.08;;;;;;;3.59;100.00;99510.84;5185897;28;20125;-73
2024/02/26 06:25:18;;;;;;;5.43;2.80;;;;;;;3.69;100.00;99514.91;5186579;28;20444;-73
2024/02/26 06:27:49;;;;;;;6.63;3.85;;;;;;;3.78;100.00;99508.66;5195870;28;20537;-73
2024/02/26 06:30:19;;;;;;;4.55;3.03;;;;;;;3.81;99.88;99506.00;5189494;28;20029;-74
2024/02/26 06:32:49;;;;;;;5.60;3.20;;;;;;;3.82;100.00;99513.69;5192003;28;20021;-73
2024/02/26 06:35:20;;;;;;;5.72;2.72;;;;;;;3.94;99.94;99512.53;5184003;28;20086;-74
2024/02/26 06:37:52;;;;;;;6.07;3.28;;;;;;;3.96;99.32;99514.19;5203970;28;20033;-73
2024/02/26 06:40:22;;;;;;;4.78;3.17;;;;;;;3.90;99.43;99523.81;5187736;28;20505;-73
2024/02/26 06:42:53;;;;;;;7.75;3.40;;;;;;;3.89;99.92;99524.72;5193800;28;20028;-74
2024/02/26 06:45:24;;;;;;;5.28;3.28;;;;;;;3.97;100.00;99523.63;5193018;28;20104;-73
2024/02/26 06:47:55;;;;;;;6.95;3.58;;;;;;;3.92;100.00;99528.06;5191459;28;20025;-72
2024/02/26 06:50:26;;;;;;;9.77;3.80;;;;;;;4.01;100.00;99530.44;5188977;28;20034;-73
2024/02/26 06:52:56;;;;;;;9.73;5.18;;;;;;;4.13;99.30;99545.59;5189239;28;20090;-72
2024/02/26 06:55:26;;;;;;;6.05;3.78;;;;;;;4.25;98.92;99545.28;5189759;28;20025;-73
2024/02/26 06:57:57;;;;;;;7.15;4.00;;;;;;;4.19;99.54;99555.81;5180648;28;20029;-72
2024/02/26 07:00:27;;;;;;;8.23;3.50;;;;;;;4.14;99.05;99552.47;5201553;28;20038;-73
2024/02/26 07:02:58;;;;;;;5.90;2.97;;;;;;;4.32;99.65;99557.16;5175759;28;20052;-74
2024/02/26 07:05:28;;;;;;;7.47;3.55;;;;;;;4.37;99.52;99563.06;5174807;28;20052;-73
2024/02/26 07:07:59;;;;;;;7.18;3.63;;;;;;;4.25;99.16;99563.38;5181697;28;20029;-73
2024/02/26 07:10:29;;;;;;;8.73;3.97;;;;;;;4.27;100.00;99571.13;5175624;28;20592;-73
2024/02/26 07:12:59;;;;;;;6.93;3.13;;;;;;;4.32;100.00;99572.66;5177536;28;20025;-73
2024/02/26 07:15:30;;;;;;;5.10;3.08;;;;;;;4.31;100.00;99573.56;5185023;28;20033;-74
2024/02/26 07:18:03;;;;;;;3.80;2.50;;;;;;;4.29;100.00;99572.75;5200303;28;20414;-74
2024/02/26 07:20:33;;;;;;;5.50;2.90;;;;;;;4.46;99.25;99575.72;5188238;28;20021;-74
2024/02/26 07:23:03;;;;;;;5.03;2.70;;;;;;;4.53;97.25;99563.47;5186288;28;20071;-74
2024/02/26 07:25:34;;;;;;;4.05;2.83;;;;;;;4.70;96.33;99579.38;5186096;28;20025;-73
2024/02/26 07:28:04;;;;;;;5.55;2.28;;;;;;;4.79;94.89;99579.13;5185761;28;20407;-73
2024/02/26 07:30:35;;;;;;;4.40;2.38;;;;;;;4.77;93.77;99571.41;5188236;28;20112;-74
2024/02/26 07:33:05;;;;;;;4.18;2.45;;;;;;;4.88;93.96;99571.97;5182670;28;20475;-73
2024/02/26 07:35:36;;;;;;;4.80;2.47;;;;;;;4.93;93.57;99570.06;5199288;28;20252;-74
2024/02/26 07:38:06;;;;;;;6.10;2.78;;;;;;;4.99;93.27;99580.25;5185548;28;20505;-73
2024/02/26 07:40:37;;;;;;;4.28;2.55;;;;;;;4.95;93.42;99581.22;5185708;28;20029;-73
2024/02/26 07:43:07;;;;;;;6.63;2.50;;;;;;;4.91;93.80;99578.78;5185363;28;20029;-74
2024/02/26 07:45:37;;;;;;;5.32;2.40;;;;;;;5.05;92.96;99581.81;5179060;28;20434;-74
2024/02/26 07:48:08;;;;;;;5.25;2.47;;;;;;;5.14;93.34;99582.38;5185050;28;20040;-73
2024/02/26 07:50:38;;;;;;;4.80;2.17;;;;;;;5.12;92.44;99580.75;5189603;28;20030;-72
2024/02/26 07:53:08;;;;;;;3.35;2.30;;;;;;;5.27;92.29;99581.13;5172154;28;20025;-74
2024/02/26 07:55:39;;;;;;;3.53;2.00;;;;;;;5.45;91.46;99581.44;5188183;28;20086;-72
2024/02/26 07:58:09;;;;;;;3.83;2.17;;;;;;;5.61;91.81;99585.22;5179034;28;20021;-73
2024/02/26 08:00:39;;;;;;;6.97;2.60;;;;;;;5.71;91.29;99591.81;5186788;28;20030;-73
2024/02/26 08:03:10;;;;;;;5.88;2.40;;;;;;;5.67;90.76;99591.94;5186917;28;20218;-73
2024/02/26 08:05:42;;;;;;;5.90;2.40;;;;;;;5.52;89.99;99590.69;5194711;28;20132;-73
2024/02/26 08:08:12;;;;;;;4.05;2.35;;;;;;;5.67;91.00;99589.34;5188936;28;20040;-74
2024/02/26 08:10:43;;;;;;;5.07;2.75;;;;;;;5.50;91.27;99591.63;5190028;28;20491;-73
2024/02/26 08:13:13;;;;;;;4.68;2.72;;;;;;;5.64;91.24;99594.63;5182713;28;20444;-73
2024/02/26 08:15:43;;;;;;;3.70;2.22;;;;;;;5.62;91.16;99599.03;5188303;28;20036;-74
2024/02/26 08:18:14;;;;;;;5.38;2.80;;;;;;;5.64;91.34;99599.81;5186850;28;20410;-74
2024/02/26 08:20:44;;;;;;;6.47;2.72;;;;;;;5.75;90.70;99596.00;5187611;28;20029;-74
2024/02/26 08:23:15;;;;;;;5.00;2.67;;;;;;;5.81;90.97;99600.16;5184095;28;20026;-74
2024/02/26 08:25:45;;;;;;;3.45;2.10;;;;;;;5.84;91.15;99607.84;5186581;28;20024;-74
2024/02/26 08:28:17;;;;;;;3.47;2.17;;;;;;;6.07;91.36;99595.00;5206307;28;20119;-73
2024/02/26 08:30:48;;;;;;;5.20;2.47;;;;;;;6.08;90.49;99594.09;5191364;28;20025;-73
2024/02/26 08:33:18;;;;;;;3.83;2.13;;;;;;;5.98;91.17;99595.28;5188433;28;20029;-73
2024/02/26 08:35:48;;;;;;;5.32;2.40;;;;;;;6.12;90.40;99593.09;5189748;28;20037;-74
2024/02/26 08:38:19;;;;;;;6.45;2.78;;;;;;;6.14;90.01;99592.16;5184601;28;20067;-73
2024/02/26 08:40:49;;;;;;;4.00;2.30;;;;;;;6.27;90.38;99598.59;5188302;28;20497;-74
2024/02/26 08:43:20;;;;;;;4.95;2.35;;;;;;;6.20;91.44;99591.94;5180872;28;20434;-73
2024/02/26 08:45:50;;;;;;;5.40;2.40;;;;;;;6.11;91.64;99592.22;5174143;28;20083;-73
2024/02/26 08:48:20;;;;;;;7.32;2.60;;;;;;;6.27;90.38;99597.78;5203474;28;20388;-74
2024/02/26 08:50:51;;;;;;;5.43;2.53;;;;;;;6.15;90.50;99604.22;5170670;28;20086;-74
2024/02/26 08:53:21;;;;;;;4.60;2.25;;;;;;;6.22;90.82;99591.91;5183193;28;20037;-74
2024/02/26 08:55:51;;;;;;;5.47;2.50;;;;;;;6.31;90.34;99594.16;5190409;28;20029;-74
2024/02/26 08:58:22;;;;;;;4.70;2.65;;;;;;;6.28;89.60;99595.09;5185014;28;20026;-74
2024/02/26 09:00:52;;;;;;;3.70;2.17;;;;;;;6.19;87.78;99600.63;5187733;28;20547;-74
2024/02/26 09:03:23;;;;;;;5.43;2.58;;;;;;;6.27;87.75;99600.38;5189432;28;20052;-74
2024/02/26 09:05:53;;;;;;;5.72;2.30;;;;;;;6.24;87.89;99600.47;5192178;28;20032;-74
2024/02/26 09:08:23;;;;;;;4.18;2.38;;;;;;;6.21;89.35;99598.81;5179169;28;20029;-74
2024/02/26 09:10:54;;;;;;;3.97;2.15;;;;;;;6.21;89.63;99611.78;5188748;28;20017;-74
2024/02/26 09:13:24;;;;;;;3.50;2.03;;;;;;;6.14;89.51;99606.84;5187315;28;20040;-74
2024/02/26 09:15:54;;;;;;;5.90;2.10;;;;;;;6.08;89.82;99607.06;5191049;28;20382;-74
2024/02/26 09:18:25;;;;;;;5.47;2.25;;;;;;;6.33;88.93;99602.75;5184390;28;20023;-73
2024/02/26 09:20:55;;;;;;;3.92;2.15;;;;;;;6.25;89.60;99604.75;5189925;28;20029;-74
2024/02/26 09:23:25;;;;;;;3.17;1.92;;;;;;;6.24;89.55;99603.91;5183915;28;20049;-74
2024/02/26 09:25:56;;;;;;;3.10;1.98;;;;;;;6.11;89.16;99596.59;5208162;28;20108;-74
2024/02/26 09:28:26;;;;;;;4.15;2.30;;;;;;;6.18;89.86;99600.66;5184668;28;20021;-73
2024/02/26 09:30:56;;;;;;;3.90;2.25;;;;;;;6.26;89.76;99596.06;5190003;28;20071;-73
2024/02/26 09:33:27;;;;;;;4.30;2.25;;;;;;;6.19;89.22;99598.03;5187748;28;20037;-74
2024/02/26 09:35:57;;;;;;;4.18;2.05;;;;;;;6.12;89.38;99593.09;5191954;28;20032;-74
2024/02/26 09:38:28;;;;;;;3.83;2.10;;;;;;;6.28;90.01;99602.06;5183297;28;20380;-74
2024/02/26 09:40:59;;;;;;;4.10;1.90;;;;;;;6.29;90.25;99596.81;5187345;28;20033;-74
2024/02/26 09:43:36;;;;;;;3.28;1.85;;;;;;;6.33;90.19;99598.41;5182992;28;20033;-74
2024/02/26 09:46:08;;;;;;;2.72;1.95;;;;;;;6.43;90.68;99606.72;5185708;28;20064;-74
2024/02/26 09:48:39;;;;;;;3.58;1.95;;;;;;;6.48;90.36;99604.81;5188854;28;20111;-74
2024/02/26 09:51:11;;;;;;;3.22;2.00;;;;;;;6.68;89.62;99591.97;5172870;28;20048;-74
2024/02/26 09:53:45;;;;;;;7.05;2.20;;;;;;;6.68;90.00;99592.84;5198834;28;20491;-74
2024/02/26 09:56:15;;;;;;;3.25;1.90;;;;;;;6.73;88.78;99590.09;5186448;28;20398;-74
2024/02/26 09:58:48;;;;;;;4.05;2.10;;;;;;;6.72;89.04;99607.41;5188347;28;20020;-74
2024/02/26 10:01:20;;;;;;;5.15;1.80;;;;;;;6.76;88.99;99608.16;5186836;28;20188;-74
2024/02/26 10:03:57;;;;;;;4.78;1.90;;;;;;;6.84;88.71;99606.09;5175771;28;20494;-74
2024/02/26 10:06:28;;;;;;;6.85;2.13;;;;;;;6.96;88.36;99606.50;5185368;28;20032;-74
2024/02/26 10:08:59;;;;;;;4.43;1.85;;;;;;;6.95;88.26;99601.38;5196345;23;20050;-72
2024/02/26 10:11:30;;;;;;;3.25;1.48;;;;;;;7.03;88.25;99614.91;5152064;28;20458;-75
2024/02/26 10:14:00;;;;;;;3.85;1.63;;;;;;;7.30;85.71;99609.53;5154152;28;20034;-73
2024/02/26 10:16:31;;;;;;;2.25;1.38;;;;;;;7.30;86.71;99610.41;5154644;28;20056;-72
2024/02/26 10:19:02;;;;;;;3.70;1.70;;;;;;;7.28;86.12;99607.94;5144926;28;20365;-72
2024/02/26 10:21:32;;;;;;;4.80;1.88;;;;;;;7.38;86.14;99616.13;5134286;28;20057;-72
2024/02/26 10:24:02;;;;;;;2.40;1.50;;;;;;;7.16;86.85;99617.03;5118967;28;20090;-73
2024/02/26 10:26:33;;;;;;;4.40;1.75;;;;;;;7.24;86.79;99614.97;5148804;28;20027;-75
2024/02/26 10:29:04;;;;;;;3.78;2.10;;;;;;;7.38;86.21;99618.75;5134368;28;20551;-75
2024/02/26 10:31:34;;;;;;;3.75;2.00;;;;;;;7.43;85.89;99624.63;5134509;28;20035;-74
2024/02/26 10:34:05;;;;;;;2.95;1.73;;;;;;;7.58;85.37;99630.97;5150846;28;20026;-74
2024/02/26 10:36:35;;;;;;;3.72;2.22;;;;;;;7.65;86.01;99638.50;5133013;28;20034;-75
2024/02/26 10:39:06;;;;;;;4.45;1.92;;;;;;;7.63;86.67;99636.84;5132129;28;20030;-74
2024/02/26 10:41:37;;;;;;;5.32;2.30;;;;;;;7.68;86.62;99643.56;5132941;28;20034;-74
2024/02/26 10:44:12;;;;;;;4.45;1.77;;;;;;;7.77;85.78;99631.97;5133681;28;20030;-75
2024/02/26 10:46:42;;;;;;;3.80;1.98;;;;;;;7.92;84.90;99640.03;5135242;28;20081;-74
2024/02/26 10:49:20;;;;;;;3.97;2.10;;;;;;;7.95;85.18;99634.69;5148777;28;20035;-74
2024/02/26 10:51:58;;;;;;;3.40;1.90;;;;;;;7.98;84.77;99646.72;5136869;28;20119;-75
2024/02/26 10:54:29;;;;;;;4.43;2.33;;;;;;;7.61;86.69;99652.53;5138114;28;20042;-74
2024/02/26 10:57:00;;;;;;;5.30;2.40;;;;;;;7.65;87.22;99655.81;5139745;28;20105;-75
2024/02/26 10:59:34;;;;;;;5.45;2.88;;;;;;;7.56;86.51;99649.22;5136572;28;20155;-74
2024/02/26 11:02:07;;;;;;;5.13;2.72;;;;;;;7.62;87.72;99650.75;5138944;28;20385;-74
2024/02/26 11:04:38;;;;;;;4.78;2.35;;;;;;;7.32;88.82;99647.56;5121811;28;20420;-74
2024/02/26 11:07:10;;;;;;;4.63;2.50;;;;;;;7.35;88.35;99641.41;5106981;28;20043;-74
2024/02/26 11:09:44;;;;;;;4.57;2.63;;;;;;;7.43;88.77;99650.63;5151616;28;20075;-74
2024/02/26 11:12:15;;;;;;;6.00;2.83;;;;;;;7.48;88.51;99643.50;5137238;28;20058;-74
2024/02/26 11:14:46;;;;;;;4.95;2.67;;;;;;;7.45;89.11;99642.75;5137613;28;20030;-74
2024/02/26 11:17:19;;;;;;;5.15;2.60;;;;;;;7.59;88.93;99640.47;5155367;28;20187;-74
2024/02/26 11:19:51;;;;;;;4.72;2.58;;;;;;;7.79;87.96;99648.34;5137981;28;20385;-75
2024/02/26 11:22:26;;;;;;;5.60;2.97;;;;;;;7.75;88.41;99642.44;5153686;28;20034;-75
2024/02/26 11:24:57;;;;;;;4.18;2.70;;;;;;;8.07;87.53;99649.78;5136079;28;20077;-75
2024/02/26 11:27:32;;;;;;;4.97;2.80;;;;;;;7.75;88.24;99652.84;5136897;28;20030;-75
2024/02/26 11:30:05;;;;;;;4.28;2.60;;;;;;;8.07;87.03;99643.75;5137485;28;20030;-74
2024/02/26 11:32:36;;;;;;;5.40;2.90;;;;;;;8.00;87.40;99644.88;5136339;28;20039;-75
2024/02/26 11:35:07;;;;;;;6.43;2.95;;;;;;;8.12;87.90;99650.47;5137875;28;20031;-74
2024/02/26 11:37:39;;;;;;;5.40;3.00;;;;;;;8.08;86.73;99651.47;5137536;28;20089;-75
2024/02/26 11:40:12;;;;;;;6.38;3.10;;;;;;;8.13;86.58;99639.16;5137124;28;20058;-74
2024/02/26 11:42:47;;;;;;;5.30;2.78;;;;;;;8.10;87.06;99644.50;5137752;28;20027;-74
2024/02/26 11:45:39;;;;;;;7.60;3.33;;;;;;;8.13;87.26;99646.97;5138107;28;20034;-74
2024/02/26 11:48:20;;;;;;;5.70;3.20;;;;;;;8.23;86.92;99650.91;5136722;28;20603;-74
2024/02/26 11:50:53;;;;;;;8.20;3.60;;;;;;;8.33;87.38;99662.63;5137127;28;20035;-74
2024/02/26 11:53:27;;;;;;;9.63;3.25;;;;;;;8.36;86.34;99661.69;5139154;28;20027;-75
2024/02/26 11:56:16;;;;;;;7.50;3.42;;;;;;;8.23;87.36;99656.09;5151950;28;20031;-74